createdAt,value
2023-03-31T00:00:54.573Z,13.96
2023-03-31T00:03:24.024Z,13.98
2023-03-31T00:05:59.530Z,13.97
2023-03-31T00:08:35.669Z,14.02
2023-03-31T00:11:07.227Z,13.86
2023-03-31T00:13:35.551Z,13.86
2023-03-31T00:16:06.488Z,13.96
2023-03-31T00:18:34.586Z,14.04
2023-03-31T00:21:09.256Z,14.13
2023-03-31T00:23:36.844Z,14.20
2023-03-31T00:26:04.574Z,14.07
2023-03-31T00:28:32.354Z,14.10
2023-03-31T00:31:04.311Z,14.14
2023-03-31T00:33:32.063Z,14.40
2023-03-31T00:36:06.326Z,14.46
2023-03-31T00:38:34.709Z,14.38
2023-03-31T00:41:02.876Z,14.22
2023-03-31T00:43:30.326Z,14.36
2023-03-31T00:46:19.711Z,14.41
2023-03-31T00:48:57.579Z,14.42
2023-03-31T00:51:29.340Z,14.35
2023-03-31T00:54:06.981Z,14.30
2023-03-31T00:56:38.656Z,14.45
2023-03-31T00:59:09.856Z,14.62
2023-03-31T01:01:42.940Z,14.41
2023-03-31T01:04:12.773Z,14.59
2023-03-31T01:06:50.354Z,14.78
2023-03-31T01:09:18.023Z,14.88
2023-03-31T01:11:47.724Z,14.82
2023-03-31T01:14:15.383Z,14.88
2023-03-31T01:16:42.987Z,14.59
2023-03-31T01:19:21.778Z,14.64
2023-03-31T01:21:57.073Z,14.78
2023-03-31T01:25:01.483Z,14.91
2023-03-31T01:27:44.320Z,14.74
2023-03-31T01:30:39.114Z,14.69
2023-03-31T01:33:31.111Z,14.79
2023-03-31T01:36:17.112Z,14.74
2023-03-31T01:39:22.034Z,14.79
2023-03-31T01:41:55.531Z,14.74
2023-03-31T01:44:44.680Z,14.92
2023-03-31T01:47:22.950Z,14.82
2023-03-31T01:50:02.465Z,14.82
2023-03-31T01:52:50.818Z,14.79
2023-03-31T01:55:24.475Z,14.59
2023-03-31T01:57:55.296Z,14.84
2023-03-31T02:00:33.343Z,14.83
2023-03-31T02:03:07.980Z,14.80
2023-03-31T02:05:44.964Z,14.67
2023-03-31T02:08:17.067Z,14.72
2023-03-31T02:10:46.817Z,14.88
2023-03-31T02:13:16.806Z,14.86
2023-03-31T02:15:49.270Z,14.75
2023-03-31T02:18:20.919Z,14.77
2023-03-31T02:20:51.098Z,14.99
2023-03-31T02:23:23.500Z,14.91
2023-03-31T02:26:01.150Z,14.71
2023-03-31T02:28:29.656Z,14.63
2023-03-31T02:31:24.810Z,14.36
2023-03-31T02:33:52.700Z,14.76
2023-03-31T02:36:21.535Z,14.76
2023-03-31T02:39:04.264Z,14.72
2023-03-31T02:41:31.902Z,14.67
2023-03-31T02:43:59.927Z,14.89
2023-03-31T02:46:29.850Z,14.77
2023-03-31T02:49:01.668Z,14.65
2023-03-31T02:51:49.808Z,14.43
2023-03-31T02:54:51.330Z,14.54
2023-03-31T02:57:29.109Z,14.42
2023-03-31T03:00:28.436Z,14.35
2023-03-31T03:03:14.524Z,14.34
2023-03-31T03:05:49.837Z,14.44
2023-03-31T03:08:49.104Z,14.68
2023-03-31T03:11:38.272Z,14.69
2023-03-31T03:14:14.426Z,14.56
2023-03-31T03:16:52.308Z,14.40
2023-03-31T03:19:23.802Z,14.54
2023-03-31T03:21:51.353Z,14.15
2023-03-31T03:24:19.467Z,14.31
2023-03-31T03:26:48.104Z,14.39
2023-03-31T03:29:15.675Z,14.31
2023-03-31T03:31:43.874Z,14.25
2023-03-31T03:34:11.611Z,14.23
2023-03-31T03:36:40.339Z,14.07
2023-03-31T03:39:08.944Z,14.27
2023-03-31T03:41:36.443Z,14.02
2023-03-31T03:44:04.090Z,14.11
2023-03-31T03:46:32.132Z,14.02
2023-03-31T03:48:59.634Z,14.10
2023-03-31T03:51:27.111Z,13.84
2023-03-31T03:53:54.680Z,14.07
2023-03-31T03:56:22.794Z,14.13
2023-03-31T03:58:50.842Z,14.06
2023-03-31T04:01:18.500Z,13.86
2023-03-31T04:03:46.150Z,14.19
2023-03-31T04:06:13.745Z,13.88
2023-03-31T04:08:41.280Z,14.07
2023-03-31T04:11:19.661Z,13.82
2023-03-31T04:13:48.148Z,13.87
2023-03-31T04:16:16.858Z,13.96
2023-03-31T04:18:46.076Z,13.94
2023-03-31T04:21:15.464Z,13.63
2023-03-31T04:23:46.631Z,13.51
2023-03-31T04:26:16.344Z,13.50
2023-03-31T04:28:46.748Z,13.73
2023-03-31T04:31:16.652Z,13.80
2023-03-31T04:33:46.056Z,13.64
2023-03-31T04:36:17.814Z,13.65
2023-03-31T04:38:54.959Z,13.62
2023-03-31T04:41:23.486Z,13.59
2023-03-31T04:43:51.231Z,13.54
2023-03-31T04:46:18.802Z,13.65
2023-03-31T04:48:46.407Z,13.61
2023-03-31T04:51:15.356Z,13.63
2023-03-31T04:53:42.938Z,13.67
2023-03-31T04:56:10.700Z,13.51
2023-03-31T04:58:38.236Z,13.35
2023-03-31T05:01:07.450Z,13.59
2023-03-31T05:03:36.015Z,13.72
2023-03-31T05:06:03.737Z,13.49
2023-03-31T05:08:31.811Z,13.59
2023-03-31T05:10:59.373Z,13.63
2023-03-31T05:13:26.885Z,13.64
2023-03-31T05:15:54.450Z,13.80
2023-03-31T05:18:22.047Z,13.75
2023-03-31T05:20:49.596Z,13.81
2023-03-31T05:23:17.146Z,13.84
2023-03-31T05:25:44.766Z,13.52
2023-03-31T05:28:12.253Z,13.63
2023-03-31T05:30:39.789Z,13.84
2023-03-31T05:33:07.456Z,13.64
2023-03-31T05:35:35.045Z,13.74
2023-03-31T05:38:02.615Z,13.92
2023-03-31T05:40:30.190Z,14.09
2023-03-31T05:42:57.675Z,13.65
2023-03-31T05:45:25.206Z,13.58
2023-03-31T05:47:52.779Z,13.27
2023-03-31T05:50:20.313Z,13.59
2023-03-31T05:52:47.860Z,13.79
2023-03-31T05:55:15.548Z,13.55
2023-03-31T05:57:43.061Z,13.28
2023-03-31T06:00:11.798Z,13.28
2023-03-31T06:02:39.491Z,13.27
2023-03-31T06:05:07.218Z,13.39
2023-03-31T06:07:34.703Z,13.28
2023-03-31T06:10:02.314Z,13.27
2023-03-31T06:12:29.872Z,13.34
2023-03-31T06:14:57.371Z,13.60
2023-03-31T06:17:25.024Z,13.62
2023-03-31T06:19:52.605Z,13.49
2023-03-31T06:22:20.158Z,13.52
2023-03-31T06:24:47.750Z,13.74
2023-03-31T06:27:15.696Z,13.75
2023-03-31T06:29:43.209Z,13.61
2023-03-31T06:32:11.879Z,13.86
2023-03-31T06:34:39.605Z,13.61
2023-03-31T06:37:07.095Z,14.02
2023-03-31T06:39:34.699Z,13.89
2023-03-31T06:42:02.238Z,13.62
2023-03-31T06:44:29.823Z,13.49
2023-03-31T06:46:57.381Z,13.54
2023-03-31T06:49:24.988Z,13.77
2023-03-31T06:51:52.611Z,13.85
2023-03-31T06:54:20.132Z,13.95
2023-03-31T06:56:47.748Z,14.13
2023-03-31T06:59:15.503Z,13.87
2023-03-31T07:01:43.111Z,14.14
2023-03-31T07:04:11.034Z,14.00
2023-03-31T07:06:38.558Z,13.86
2023-03-31T07:09:06.715Z,13.82
2023-03-31T07:11:34.291Z,14.07
2023-03-31T07:14:01.877Z,14.07
2023-03-31T07:16:29.459Z,14.03
2023-03-31T07:18:59.558Z,13.96
2023-03-31T07:21:27.446Z,14.20
2023-03-31T07:23:54.967Z,13.95
2023-03-31T07:26:22.541Z,13.96
2023-03-31T07:28:50.072Z,14.01
2023-03-31T07:31:17.633Z,13.89
2023-03-31T07:33:45.406Z,14.12
2023-03-31T07:36:14.155Z,13.98
2023-03-31T07:38:43.520Z,14.07
2023-03-31T07:41:13.076Z,14.11
2023-03-31T07:43:40.903Z,14.13
2023-03-31T07:46:14.663Z,13.88
2023-03-31T07:48:42.198Z,14.01
2023-03-31T07:51:09.783Z,14.10
2023-03-31T07:53:37.879Z,14.17
2023-03-31T07:56:05.657Z,14.47
2023-03-31T07:58:33.432Z,13.76
2023-03-31T08:01:01.078Z,14.37
2023-03-31T08:03:28.676Z,14.49
2023-03-31T08:05:56.736Z,14.38
2023-03-31T08:08:24.332Z,14.62
2023-03-31T08:10:51.959Z,14.71
2023-03-31T08:13:19.605Z,14.61
2023-03-31T08:15:47.238Z,14.72
2023-03-31T08:18:14.880Z,14.51
2023-03-31T08:20:42.545Z,14.50
2023-03-31T08:23:11.500Z,14.54
2023-03-31T08:25:39.568Z,14.76
2023-03-31T08:28:10.740Z,14.72
2023-03-31T08:30:39.599Z,14.45
2023-03-31T08:33:08.123Z,14.50
2023-03-31T08:35:39.672Z,14.48
2023-03-31T08:38:07.363Z,14.21
2023-03-31T08:40:35.097Z,14.09
2023-03-31T08:45:36.244Z,14.44
2023-03-31T08:48:25.562Z,14.51
2023-03-31T08:51:02.379Z,14.74
2023-03-31T08:53:33.344Z,14.67
2023-03-31T08:56:01.527Z,14.26
2023-03-31T08:58:44.574Z,14.42
2023-03-31T09:01:52.169Z,14.54
2023-03-31T09:04:32.092Z,14.19
2023-03-31T09:07:21.413Z,14.49
2023-03-31T09:10:13.704Z,14.68
2023-03-31T09:13:05.436Z,14.74
2023-03-31T09:15:54.219Z,14.84
2023-03-31T09:18:35.874Z,15.16
2023-03-31T09:21:16.837Z,15.31
2023-03-31T09:24:00.299Z,15.43
2023-03-31T09:26:42.811Z,15.85
2023-03-31T09:29:31.510Z,15.73
2023-03-31T09:32:19.327Z,15.53
2023-03-31T09:34:51.424Z,15.54
2023-03-31T09:37:19.005Z,15.58
2023-03-31T09:39:46.918Z,15.58
2023-03-31T09:42:15.464Z,15.86
2023-03-31T09:44:49.921Z,15.86
2023-03-31T09:47:43.206Z,16.00
2023-03-31T09:50:12.603Z,16.38
2023-03-31T09:53:01.948Z,15.98
2023-03-31T09:55:46.424Z,16.12
2023-03-31T09:58:16.835Z,16.27
2023-03-31T10:00:58.542Z,16.42
2023-03-31T10:03:27.896Z,16.33
2023-03-31T10:05:58.971Z,16.52
2023-03-31T10:08:35.379Z,16.24
2023-03-31T10:11:02.949Z,16.10
2023-03-31T10:13:41.142Z,16.10
2023-03-31T10:16:14.535Z,16.16
2023-03-31T10:18:44.455Z,16.12
2023-03-31T10:21:27.727Z,16.25
2023-03-31T10:23:56.312Z,16.26
2023-03-31T10:26:28.356Z,16.46
2023-03-31T10:28:56.365Z,16.69
2023-03-31T10:31:28.737Z,16.73
2023-03-31T10:33:58.383Z,16.70
2023-03-31T10:36:31.791Z,16.82
2023-03-31T10:38:59.793Z,16.71
2023-03-31T10:41:30.221Z,16.51
2023-03-31T10:44:00.208Z,16.63
2023-03-31T10:46:51.273Z,16.18
2023-03-31T10:49:28.880Z,16.37
2023-03-31T10:51:58.796Z,16.28
2023-03-31T10:54:27.276Z,16.82
2023-03-31T10:57:05.493Z,16.62
2023-03-31T11:00:13.351Z,16.71
2023-03-31T11:03:09.712Z,16.34
2023-03-31T11:05:45.143Z,16.25
2023-03-31T11:08:27.167Z,16.17
2023-03-31T11:11:29.460Z,15.24
2023-03-31T11:14:30.882Z,15.33
2023-03-31T11:17:05.081Z,15.25
2023-03-31T11:19:45.944Z,15.49
2023-03-31T11:22:38.314Z,15.32
2023-03-31T11:25:18.752Z,15.43
2023-03-31T11:28:17.391Z,15.22
2023-03-31T11:31:28.599Z,15.19
2023-03-31T11:34:09.418Z,15.15
2023-03-31T11:36:52.235Z,15.36
2023-03-31T11:39:26.201Z,15.07
2023-03-31T11:41:59.668Z,15.42
2023-03-31T11:44:31.229Z,15.46
2023-03-31T11:47:07.471Z,15.34
2023-03-31T11:49:46.011Z,15.45
2023-03-31T11:52:17.747Z,15.45
2023-03-31T11:54:51.579Z,15.53
2023-03-31T11:57:34.595Z,16.12
2023-03-31T12:00:13.383Z,15.68
2023-03-31T12:02:56.284Z,16.10
2023-03-31T12:05:27.364Z,15.91
2023-03-31T12:07:57.671Z,16.03
2023-03-31T12:10:36.654Z,15.86
2023-03-31T12:13:27.296Z,16.20
2023-03-31T12:16:16.033Z,15.83
2023-03-31T12:18:54.425Z,15.87
2023-03-31T12:21:24.689Z,16.12
2023-03-31T12:23:52.271Z,16.15
2023-03-31T12:26:42.415Z,15.83
2023-03-31T12:29:28.227Z,15.82
2023-03-31T12:31:59.540Z,15.88
2023-03-31T12:34:30.195Z,15.57
2023-03-31T12:37:20.172Z,15.47
2023-03-31T12:40:17.375Z,16.07
2023-03-31T12:43:06.649Z,15.96
2023-03-31T12:45:48.250Z,15.65
2023-03-31T12:48:55.306Z,15.36
2023-03-31T12:51:49.183Z,15.25
2023-03-31T12:54:45.146Z,15.00
2023-03-31T12:57:12.682Z,15.00
2023-03-31T12:59:45.665Z,15.57
2023-03-31T13:02:16.256Z,15.73
2023-03-31T13:04:44.971Z,15.81
2023-03-31T13:07:37.043Z,15.26
2023-03-31T13:10:31.988Z,15.48
2023-03-31T13:13:04.022Z,15.34
2023-03-31T13:15:32.483Z,15.34
2023-03-31T13:18:05.989Z,15.21
2023-03-31T13:20:38.166Z,15.54
2023-03-31T13:23:08.523Z,16.06
2023-03-31T13:25:42.768Z,15.82
2023-03-31T13:28:25.591Z,15.56
2023-03-31T13:31:03.809Z,15.10
2023-03-31T13:33:39.533Z,14.93
2023-03-31T13:36:16.516Z,15.44
2023-03-31T13:38:59.183Z,15.23
2023-03-31T13:41:40.475Z,15.02
2023-03-31T13:44:59.216Z,15.32
2023-03-31T13:48:21.087Z,15.46
2023-03-31T13:50:52.016Z,15.38
2023-03-31T13:53:48.303Z,15.49
2023-03-31T13:56:35.843Z,15.39
2023-03-31T13:59:09.180Z,15.46
2023-03-31T14:01:37.148Z,15.72
2023-03-31T14:04:23.018Z,15.53
2023-03-31T14:06:58.684Z,15.31
2023-03-31T14:09:37.453Z,15.43
2023-03-31T14:12:31.196Z,15.32
2023-03-31T14:14:58.809Z,15.28
2023-03-31T14:17:37.401Z,14.90
2023-03-31T14:20:38.164Z,15.06
2023-03-31T14:23:20.834Z,15.41
2023-03-31T14:26:17.889Z,15.09
2023-03-31T14:29:13.764Z,14.81
2023-03-31T14:31:49.195Z,15.09
2023-03-31T14:35:05.186Z,14.79
2023-03-31T14:37:33.111Z,15.19
2023-03-31T14:40:03.890Z,15.12
2023-03-31T14:42:39.574Z,15.13
2023-03-31T14:45:17.181Z,14.68
2023-03-31T14:48:14.538Z,15.06
2023-03-31T14:50:47.858Z,14.71
2023-03-31T14:53:24.153Z,14.84
2023-03-31T14:55:59.056Z,14.83
2023-03-31T14:58:41.129Z,14.93
2023-03-31T15:01:11.608Z,14.84
2023-03-31T15:03:42.596Z,15.01
2023-03-31T15:06:11.530Z,14.92
2023-03-31T15:08:39.597Z,15.12
2023-03-31T15:11:13.718Z,15.16
2023-03-31T15:14:00.881Z,15.17
2023-03-31T15:16:43.085Z,15.05
2023-03-31T15:19:22.985Z,14.68
2023-03-31T15:22:02.900Z,14.86
2023-03-31T15:24:31.017Z,14.91
2023-03-31T15:27:04.981Z,14.64
2023-03-31T15:29:43.487Z,14.80
2023-03-31T15:32:28.960Z,14.88
2023-03-31T15:35:04.781Z,14.88
2023-03-31T15:37:42.092Z,14.73
2023-03-31T15:40:31.070Z,14.54
2023-03-31T15:43:44.124Z,14.51
2023-03-31T15:46:18.108Z,14.51
2023-03-31T15:48:56.654Z,14.58
2023-03-31T15:51:34.502Z,14.58
2023-03-31T15:54:02.496Z,14.71
2023-03-31T15:56:41.646Z,14.64
2023-03-31T15:59:38.000Z,14.59
2023-03-31T16:02:14.868Z,14.50
2023-03-31T16:04:42.656Z,14.48
2023-03-31T16:07:18.722Z,14.61
2023-03-31T16:09:56.237Z,14.70
2023-03-31T16:12:25.593Z,14.35
2023-03-31T16:15:31.500Z,14.25
2023-03-31T16:18:06.547Z,14.43
2023-03-31T16:20:38.598Z,14.39
2023-03-31T16:23:26.249Z,14.31
2023-03-31T16:25:54.304Z,14.48
2023-03-31T16:28:25.690Z,14.49
2023-03-31T16:30:54.586Z,14.35
2023-03-31T16:33:24.579Z,14.58
2023-03-31T16:35:56.172Z,14.70
2023-03-31T16:38:26.561Z,14.31
2023-03-31T16:40:56.192Z,14.03
2023-03-31T16:43:29.319Z,14.14
2023-03-31T16:46:01.836Z,14.09
2023-03-31T16:48:30.837Z,14.56
2023-03-31T16:51:00.388Z,14.40
2023-03-31T16:53:31.030Z,14.65
2023-03-31T16:55:59.327Z,14.38
2023-03-31T16:58:28.470Z,14.17
2023-03-31T17:00:57.353Z,14.18
2023-03-31T17:03:25.670Z,14.11
2023-03-31T17:05:58.620Z,14.15
2023-03-31T17:08:28.734Z,13.93
2023-03-31T17:11:01.311Z,13.99
2023-03-31T17:13:28.860Z,13.96
2023-03-31T17:18:44.458Z,14.02
2023-03-31T17:21:15.100Z,14.04
2023-03-31T17:23:43.132Z,13.81
2023-03-31T17:26:12.774Z,14.40
2023-03-31T17:28:41.584Z,14.42
2023-03-31T17:31:21.077Z,14.46
2023-03-31T17:33:48.932Z,14.43
2023-03-31T17:36:16.689Z,14.22
2023-03-31T17:38:44.946Z,14.26
2023-03-31T17:41:15.338Z,14.31
2023-03-31T17:43:47.151Z,14.24
2023-03-31T17:46:15.462Z,14.23
2023-03-31T17:48:43.656Z,14.23
2023-03-31T17:51:19.809Z,13.90
2023-03-31T17:53:49.005Z,14.03
2023-03-31T17:56:17.815Z,14.02
2023-03-31T17:58:46.249Z,13.70
2023-03-31T18:01:14.647Z,13.79
2023-03-31T18:03:42.631Z,13.93
2023-03-31T18:06:12.913Z,13.87
2023-03-31T18:08:42.616Z,14.07
2023-03-31T18:11:11.318Z,14.09
2023-03-31T18:13:39.376Z,13.90
2023-03-31T18:16:09.870Z,14.18
2023-03-31T18:18:39.475Z,14.04
2023-03-31T18:21:08.528Z,13.90
2023-03-31T18:23:36.459Z,13.96
2023-03-31T18:26:07.583Z,14.17
2023-03-31T18:28:36.042Z,14.13
2023-03-31T18:31:07.649Z,14.09
2023-03-31T18:33:36.495Z,13.89
2023-03-31T18:36:04.557Z,14.27
2023-03-31T18:38:33.418Z,13.87
2023-03-31T18:41:01.748Z,13.90
2023-03-31T18:43:30.804Z,14.12
2023-03-31T18:46:01.309Z,14.07
2023-03-31T18:48:29.218Z,14.16
2023-03-31T18:50:57.463Z,13.88
2023-03-31T18:53:25.950Z,14.11
2023-03-31T18:55:56.452Z,13.88
2023-03-31T18:58:25.080Z,13.92
2023-03-31T19:00:52.855Z,13.99
2023-03-31T19:03:20.572Z,13.93
2023-03-31T19:05:48.374Z,13.85
2023-03-31T19:08:16.226Z,13.91
2023-03-31T19:10:44.038Z,13.75
2023-03-31T19:13:16.878Z,14.02
2023-03-31T19:15:44.518Z,13.89
2023-03-31T19:18:15.813Z,14.26
2023-03-31T19:20:43.359Z,14.33
2023-03-31T19:23:12.808Z,14.29
2023-03-31T19:25:40.962Z,14.31
2023-03-31T19:28:08.622Z,13.99
2023-03-31T19:30:36.195Z,13.93
2023-03-31T19:33:03.789Z,14.25
2023-03-31T19:35:31.903Z,14.05
2023-03-31T19:37:59.575Z,14.07
2023-03-31T19:40:27.979Z,14.31
2023-03-31T19:42:55.589Z,14.21
2023-03-31T19:45:23.147Z,14.07
2023-03-31T19:47:50.781Z,14.38
2023-03-31T19:50:18.476Z,14.34
2023-03-31T19:52:49.741Z,14.47
2023-03-31T19:55:17.939Z,14.07
2023-03-31T19:57:45.616Z,14.25
2023-03-31T20:00:13.610Z,13.78
2023-03-31T20:02:41.446Z,14.05
2023-03-31T20:05:09.262Z,14.24
2023-03-31T20:07:36.888Z,13.76
2023-03-31T20:10:04.512Z,13.87
2023-03-31T20:12:32.064Z,13.90
2023-03-31T20:14:59.839Z,13.79
2023-03-31T20:17:27.419Z,13.90
2023-03-31T20:19:55.369Z,13.73
2023-03-31T20:22:23.086Z,13.79
2023-03-31T20:24:50.741Z,13.63
2023-03-31T20:27:18.466Z,13.70
2023-03-31T20:29:46.506Z,13.48
2023-03-31T20:32:17.198Z,13.60
2023-03-31T20:34:44.980Z,13.81
2023-03-31T20:37:13.077Z,13.66
2023-03-31T20:39:42.453Z,13.85
2023-03-31T20:42:10.790Z,13.61
2023-03-31T20:44:38.246Z,13.71
2023-03-31T20:47:05.794Z,13.54
2023-03-31T20:49:33.524Z,13.61
2023-03-31T20:52:01.319Z,13.77
2023-03-31T20:54:29.017Z,13.50
2023-03-31T20:56:56.596Z,13.26
2023-03-31T20:59:24.235Z,13.36
2023-03-31T21:01:51.781Z,13.22
2023-03-31T21:04:19.514Z,13.59
2023-03-31T21:06:48.401Z,13.61
2023-03-31T21:09:17.064Z,13.64
2023-03-31T21:11:45.016Z,13.64
2023-03-31T21:14:15.670Z,13.75
2023-03-31T21:16:43.558Z,13.56
2023-03-31T21:19:11.458Z,13.41
2023-03-31T21:21:41.228Z,13.56
2023-03-31T21:24:11.495Z,13.74
2023-03-31T21:26:39.792Z,13.73
2023-03-31T21:29:07.437Z,13.67
2023-03-31T21:31:35.046Z,13.66
2023-03-31T21:34:03.411Z,13.60
2023-03-31T21:36:31.245Z,13.76
2023-03-31T21:38:59.055Z,13.69
2023-03-31T21:41:30.006Z,13.80
2023-03-31T21:44:00.582Z,13.50
2023-03-31T21:46:33.039Z,13.79
2023-03-31T21:49:01.100Z,13.55
2023-03-31T21:51:28.893Z,13.81
2023-03-31T21:53:56.978Z,13.74
2023-03-31T21:56:27.696Z,13.88
2023-03-31T21:58:55.695Z,13.74
2023-03-31T22:01:23.599Z,13.99
2023-03-31T22:03:51.855Z,13.60
2023-03-31T22:06:19.983Z,13.64
2023-03-31T22:08:47.602Z,13.46
2023-03-31T22:11:16.105Z,13.63
2023-03-31T22:13:44.045Z,13.94
2023-03-31T22:16:29.472Z,14.17
2023-03-31T22:18:57.114Z,13.94
2023-03-31T22:21:26.757Z,14.07
2023-03-31T22:23:56.309Z,14.02
2023-03-31T22:26:24.709Z,14.13
2023-03-31T22:28:52.817Z,14.10
2023-03-31T22:31:20.616Z,14.18
2023-03-31T22:33:48.897Z,14.15
2023-03-31T22:36:17.012Z,14.04
2023-03-31T22:38:44.653Z,13.89
2023-03-31T22:41:12.236Z,13.98
2023-03-31T22:43:39.906Z,13.76
2023-03-31T22:46:09.832Z,13.98
2023-03-31T22:48:37.507Z,14.09
2023-03-31T22:51:06.178Z,13.93
2023-03-31T22:53:34.606Z,13.78
2023-03-31T22:56:08.228Z,13.95
2023-03-31T22:58:36.108Z,13.89
2023-03-31T23:01:04.812Z,13.78
2023-03-31T23:03:32.428Z,13.96
2023-03-31T23:06:05.044Z,13.74
2023-03-31T23:08:33.395Z,13.91
2023-03-31T23:11:01.767Z,13.77
2023-03-31T23:13:30.333Z,13.88
2023-03-31T23:16:03.502Z,13.80
2023-03-31T23:18:31.447Z,13.99
2023-03-31T23:20:58.932Z,13.89
2023-03-31T23:23:26.439Z,13.93
2023-03-31T23:25:53.975Z,13.98
2023-03-31T23:28:21.767Z,13.88
2023-03-31T23:30:56.440Z,13.90
2023-03-31T23:33:25.483Z,14.15
2023-03-31T23:35:54.294Z,13.85
2023-03-31T23:38:22.311Z,14.11
2023-03-31T23:40:49.877Z,13.82
2023-03-31T23:43:18.197Z,14.02
2023-03-31T23:45:45.720Z,14.10
2023-03-31T23:48:13.276Z,14.15
2023-03-31T23:50:40.919Z,14.01
2023-03-31T23:53:08.476Z,14.06
2023-03-31T23:55:36.506Z,14.05
2023-03-31T23:58:04.550Z,13.99
